QAT4521 LPMA-GMMN
Flight info
| Callsign | QAT4521 |
|---|---|
| Flight time | N/A |
| Altitude | 40000 |
| Route | DEGUN DCT NARTA/N0475F390 DCT AMSEL UR722 LAKAM |
| Aircraft | A388/J-SADE2E3FGHIJ3J4J5M1RWXY/LB1D1 |
Departure
| Time | N/A |
|---|---|
| Airport | Cristiano Ronaldo International Airport (LPMA) |
Arrival
| Time | 2026-04-30 20:02 |
|---|---|
| Airport | Mohammed V International Airport (GMMN) |
| Time | Latitude | Longitude | Altitude | Speed | Heading |
|---|---|---|---|---|---|
| 2026-04-30 19:23 | 35.88349 | -8.84988 | 40002 ft | 473 kts | 83° |
| 2026-04-30 19:24 | 35.89435 | -8.72874 | 40000 ft | 473 kts | 84° |
| 2026-04-30 19:25 | 35.91218 | -8.52691 | 40000 ft | 473 kts | 84° |
| 2026-04-30 19:26 | 35.92569 | -8.37115 | 40002 ft | 473 kts | 84° |
| 2026-04-30 19:27 | 35.93595 | -8.25139 | 40000 ft | 473 kts | 84° |
| 2026-04-30 19:28 | 35.94140 | -8.14038 | 39999 ft | 472 kts | 97° |
| 2026-04-30 19:28 | 35.92400 | -8.06222 | 39996 ft | 472 kts | 111° |
| 2026-04-30 19:29 | 35.89432 | -7.99025 | 39995 ft | 472 kts | 124° |
| 2026-04-30 19:30 | 35.79937 | -7.88757 | 39992 ft | 471 kts | 155° |
| 2026-04-30 19:30 | 35.73818 | -7.86415 | 39995 ft | 470 kts | 172° |
| 2026-04-30 19:31 | 35.67337 | -7.85745 | 39991 ft | 470 kts | 175° |
| 2026-04-30 19:31 | 35.57536 | -7.84795 | 39995 ft | 470 kts | 176° |
| 2026-04-30 19:32 | 35.51091 | -7.84206 | 39999 ft | 453 kts | 176° |
| 2026-04-30 19:32 | 35.47982 | -7.83925 | 39980 ft | 440 kts | 176° |
| 2026-04-30 19:32 | 35.44996 | -7.83657 | 39883 ft | 430 kts | 176° |
| 2026-04-30 19:33 | 35.42034 | -7.83391 | 39579 ft | 425 kts | 176° |
| 2026-04-30 19:33 | 35.39064 | -7.83128 | 38907 ft | 430 kts | 176° |
| 2026-04-30 19:33 | 35.36280 | -7.82893 | 38222 ft | 435 kts | 176° |
| 2026-04-30 19:33 | 35.33234 | -7.82639 | 37440 ft | 442 kts | 176° |
| 2026-04-30 19:34 | 35.30145 | -7.82381 | 36659 ft | 447 kts | 176° |
| 2026-04-30 19:34 | 35.27018 | -7.82119 | 36000 ft | 449 kts | 176° |
| 2026-04-30 19:34 | 35.20801 | -7.81596 | 34662 ft | 451 kts | 176° |
| 2026-04-30 19:35 | 35.17663 | -7.81332 | 33991 ft | 452 kts | 176° |
| 2026-04-30 19:35 | 35.14523 | -7.81067 | 33295 ft | 452 kts | 176° |
| 2026-04-30 19:35 | 35.11371 | -7.80802 | 32495 ft | 455 kts | 176° |
| 2026-04-30 19:35 | 35.08192 | -7.80535 | 31551 ft | 459 kts | 176° |
| 2026-04-30 19:36 | 35.05001 | -7.80268 | 30849 ft | 458 kts | 176° |
| 2026-04-30 19:36 | 35.01838 | -7.80002 | 30270 ft | 453 kts | 176° |
| 2026-04-30 19:36 | 34.95596 | -7.79479 | 29076 ft | 445 kts | 176° |
| 2026-04-30 19:37 | 34.92523 | -7.79222 | 28473 ft | 441 kts | 176° |
| 2026-04-30 19:37 | 34.89509 | -7.78970 | 27883 ft | 437 kts | 176° |
| 2026-04-30 19:37 | 34.86489 | -7.78718 | 27279 ft | 433 kts | 176° |
| 2026-04-30 19:37 | 34.83451 | -7.78464 | 26306 ft | 437 kts | 176° |
| 2026-04-30 19:38 | 34.80436 | -7.78213 | 25572 ft | 435 kts | 176° |
| 2026-04-30 19:38 | 34.77445 | -7.77963 | 25130 ft | 429 kts | 176° |
| 2026-04-30 19:38 | 34.74501 | -7.77718 | 24994 ft | 414 kts | 176° |
| 2026-04-30 19:38 | 34.71689 | -7.77495 | 25004 ft | 396 kts | 177° |
| 2026-04-30 19:39 | 34.69003 | -7.77309 | 24997 ft | 379 kts | 177° |
| 2026-04-30 19:39 | 34.66413 | -7.77136 | 24996 ft | 363 kts | 177° |
| 2026-04-30 19:39 | 34.63942 | -7.76969 | 25003 ft | 349 kts | 177° |
| 2026-04-30 19:39 | 34.61576 | -7.76808 | 24999 ft | 342 kts | 177° |
| 2026-04-30 19:40 | 34.59216 | -7.76645 | 24999 ft | 336 kts | 177° |
| 2026-04-30 19:40 | 34.56917 | -7.76485 | 25005 ft | 325 kts | 177° |
| 2026-04-30 19:40 | 34.54682 | -7.76329 | 24846 ft | 320 kts | 177° |
| 2026-04-30 19:40 | 34.52454 | -7.76174 | 24544 ft | 319 kts | 177° |
| 2026-04-30 19:41 | 34.50237 | -7.76020 | 24122 ft | 322 kts | 177° |
| 2026-04-30 19:41 | 34.47966 | -7.75862 | 23619 ft | 327 kts | 177° |
| 2026-04-30 19:41 | 34.45694 | -7.75704 | 23255 ft | 327 kts | 177° |
| 2026-04-30 19:41 | 34.43430 | -7.75547 | 22881 ft | 326 kts | 177° |
| 2026-04-30 19:42 | 34.41134 | -7.75394 | 22280 ft | 334 kts | 177° |
| 2026-04-30 19:42 | 34.38782 | -7.75230 | 21595 ft | 342 kts | 177° |
| 2026-04-30 19:42 | 34.36405 | -7.75063 | 20863 ft | 351 kts | 177° |
| 2026-04-30 19:42 | 34.33934 | -7.74889 | 20055 ft | 360 kts | 177° |
| 2026-04-30 19:43 | 34.31398 | -7.74712 | 19163 ft | 369 kts | 177° |
| 2026-04-30 19:43 | 34.28807 | -7.74532 | 18285 ft | 376 kts | 177° |
| 2026-04-30 19:43 | 34.26195 | -7.74351 | 17678 ft | 374 kts | 177° |
| 2026-04-30 19:44 | 34.21029 | -7.73993 | 16276 ft | 373 kts | 177° |
| 2026-04-30 19:44 | 34.18412 | -7.73813 | 15171 ft | 382 kts | 177° |
| 2026-04-30 19:44 | 34.15719 | -7.73595 | 14012 ft | 391 kts | 176° |
| 2026-04-30 19:44 | 34.13070 | -7.73342 | 13169 ft | 389 kts | 175° |
| 2026-04-30 19:45 | 34.10373 | -7.73078 | 12036 ft | 390 kts | 175° |
| 2026-04-30 19:45 | 34.07649 | -7.72816 | 10921 ft | 394 kts | 176° |
| 2026-04-30 19:45 | 34.04930 | -7.72560 | 10008 ft | 389 kts | 176° |
| 2026-04-30 19:45 | 34.02257 | -7.72311 | 9097 ft | 384 kts | 176° |
| 2026-04-30 19:46 | 33.99607 | -7.72066 | 8180 ft | 379 kts | 176° |
| 2026-04-30 19:46 | 33.96990 | -7.71819 | 7256 ft | 373 kts | 174° |
| 2026-04-30 19:46 | 33.94433 | -7.71417 | 6504 ft | 371 kts | 172° |
| 2026-04-30 19:46 | 33.91869 | -7.71001 | 6175 ft | 370 kts | 173° |
| 2026-04-30 19:47 | 33.89319 | -7.70593 | 6027 ft | 369 kts | 173° |
| 2026-04-30 19:47 | 33.87641 | -7.70325 | 5997 ft | 362 kts | 173° |
| 2026-04-30 19:47 | 33.84464 | -7.69819 | 5999 ft | 326 kts | 173° |
| 2026-04-30 19:47 | 33.82277 | -7.69470 | 5844 ft | 308 kts | 173° |
| 2026-04-30 19:48 | 33.80199 | -7.69139 | 5678 ft | 293 kts | 173° |
| 2026-04-30 19:48 | 33.78229 | -7.68826 | 5565 ft | 279 kts | 173° |
| 2026-04-30 19:48 | 33.77609 | -7.68727 | 5527 ft | 275 kts | 173° |
| 2026-04-30 19:48 | 33.76664 | -7.68577 | 5471 ft | 268 kts | 173° |
| 2026-04-30 19:49 | 33.74849 | -7.68288 | 5363 ft | 256 kts | 173° |
| 2026-04-30 19:49 | 33.71476 | -7.67752 | 4954 ft | 245 kts | 173° |
| 2026-04-30 19:49 | 33.69769 | -7.67482 | 4768 ft | 247 kts | 173° |
| 2026-04-30 19:50 | 33.68056 | -7.67210 | 4493 ft | 249 kts | 173° |
| 2026-04-30 19:50 | 33.66309 | -7.66933 | 4030 ft | 257 kts | 173° |
| 2026-04-30 19:50 | 33.64522 | -7.66650 | 3780 ft | 260 kts | 173° |
| 2026-04-30 19:50 | 33.62719 | -7.66364 | 3503 ft | 261 kts | 173° |
| 2026-04-30 19:51 | 33.60921 | -7.66078 | 3054 ft | 260 kts | 173° |
| 2026-04-30 19:51 | 33.59138 | -7.65796 | 2893 ft | 253 kts | 173° |
| 2026-04-30 19:51 | 33.57451 | -7.65528 | 2864 ft | 236 kts | 173° |
| 2026-04-30 19:51 | 33.55871 | -7.65277 | 2776 ft | 223 kts | 173° |
| 2026-04-30 19:52 | 33.54396 | -7.65053 | 2670 ft | 200 kts | 172° |
| 2026-04-30 19:52 | 33.53084 | -7.64764 | 2132 ft | 190 kts | 168° |
| 2026-04-30 19:52 | 33.51832 | -7.64381 | 1892 ft | 176 kts | 165° |
| 2026-04-30 19:52 | 33.50743 | -7.64013 | 1862 ft | 150 kts | 165° |
| 2026-04-30 19:53 | 33.49773 | -7.63682 | 1871 ft | 144 kts | 165° |
| 2026-04-30 19:53 | 33.48811 | -7.63353 | 1870 ft | 145 kts | 165° |
| 2026-04-30 19:53 | 33.47838 | -7.63018 | 1868 ft | 145 kts | 165° |
| 2026-04-30 19:53 | 33.46874 | -7.62687 | 1848 ft | 143 kts | 165° |
| 2026-04-30 19:54 | 33.45924 | -7.62360 | 1617 ft | 142 kts | 165° |
| 2026-04-30 19:54 | 33.44983 | -7.62037 | 1255 ft | 140 kts | 165° |
| 2026-04-30 19:54 | 33.44065 | -7.61722 | 1001 ft | 137 kts | 165° |
| 2026-04-30 19:54 | 33.43043 | -7.61355 | 1357 ft | 155 kts | 165° |
| 2026-04-30 19:55 | 33.42086 | -7.61031 | 1309 ft | 136 kts | 165° |
| 2026-04-30 19:55 | 33.41194 | -7.60732 | 1180 ft | 159 kts | 165° |
| 2026-04-30 19:55 | 33.40169 | -7.60385 | 1069 ft | 150 kts | 164° |
| 2026-04-30 19:55 | 33.39195 | -7.60049 | 882 ft | 145 kts | 165° |
| 2026-04-30 19:56 | 33.38296 | -7.59744 | 716 ft | 143 kts | 164° |
| 2026-04-30 19:56 | 33.37387 | -7.59431 | 661 ft | 112 kts | 164° |
| 2026-04-30 19:56 | 33.36716 | -7.59208 | 661 ft | 119 kts | 163° |
| 2026-04-30 19:56 | 33.35711 | -7.58861 | 741 ft | 170 kts | 165° |
| 2026-04-30 19:57 | 33.34581 | -7.58748 | 1509 ft | 165 kts | 193° |
| 2026-04-30 19:57 | 33.33629 | -7.59481 | 2254 ft | 165 kts | 231° |
| 2026-04-30 19:57 | 33.32891 | -7.60531 | 2979 ft | 167 kts | 224° |
| 2026-04-30 19:57 | 33.31996 | -7.61433 | 3670 ft | 167 kts | 218° |
| 2026-04-30 19:58 | 33.31020 | -7.62282 | 4023 ft | 185 kts | 215° |
| 2026-04-30 19:58 | 33.29851 | -7.63018 | 4161 ft | 195 kts | 195° |
| 2026-04-30 19:58 | 33.28549 | -7.62987 | 4267 ft | 183 kts | 166° |
| 2026-04-30 19:58 | 33.27523 | -7.62235 | 4229 ft | 174 kts | 130° |
| 2026-04-30 19:59 | 33.27171 | -7.60931 | 3989 ft | 164 kts | 90° |
| 2026-04-30 19:59 | 33.27190 | -7.59598 | 3712 ft | 160 kts | 94° |
| 2026-04-30 19:59 | 33.27948 | -7.57264 | 2981 ft | 163 kts | 32° |
| 2026-04-30 20:00 | 33.28976 | -7.56680 | 2365 ft | 165 kts | 12° |
| 2026-04-30 20:00 | 33.30125 | -7.56657 | 1798 ft | 164 kts | 353° |
| 2026-04-30 20:00 | 33.31196 | -7.56916 | 1557 ft | 150 kts | 345° |
| 2026-04-30 20:00 | 33.32156 | -7.57247 | 1374 ft | 140 kts | 343° |
| 2026-04-30 20:01 | 33.33750 | -7.57781 | 934 ft | 142 kts | 343° |
| 2026-04-30 20:01 | 33.34690 | -7.58094 | 772 ft | 139 kts | 343° |
| 2026-04-30 20:01 | 33.35588 | -7.58391 | 666 ft | 127 kts | 343° |
| 2026-04-30 20:02 | 33.36814 | -7.58811 | 659 ft | 45 kts | 343° |
| 2026-04-30 20:02 | 33.37108 | -7.58908 | 658 ft | 56 kts | 344° |
| 2026-04-30 20:03 | 33.37537 | -7.59051 | 658 ft | 42 kts | 344° |
| 2026-04-30 20:03 | 33.37800 | -7.59112 | 654 ft | 16 kts | 40° |
| 2026-04-30 20:03 | 33.37854 | -7.58940 | 654 ft | 29 kts | 79° |
| 2026-04-30 20:03 | 33.37866 | -7.58884 | 656 ft | 10 kts | 75° |
| 2026-04-30 20:04 | 33.37793 | -7.58787 | 655 ft | 27 kts | 173° |
| 2026-04-30 20:04 | 33.37520 | -7.58693 | 657 ft | 65 kts | 164° |
| 2026-04-30 20:04 | 33.37060 | -7.58534 | 658 ft | 41 kts | 163° |
| 2026-04-30 20:05 | 33.36925 | -7.58348 | 659 ft | 18 kts | 75° |
| 2026-04-30 20:05 | 33.36945 | -7.58263 | 659 ft | 1 kts | 65° |
| 2026-04-30 20:05 | 33.37129 | -7.58249 | 658 ft | 2 kts | 21° |
| 2026-04-30 20:06 | 33.37152 | -7.58251 | 658 ft | 13 kts | 326° |
| 2026-04-30 20:06 | 33.37292 | -7.58354 | 657 ft | 16 kts | 4° |
| 2026-04-30 20:06 | 33.37322 | -7.58296 | 657 ft | 10 kts | 81° |
| 2026-04-30 20:06 | 33.37326 | -7.58272 | 657 ft | 0 kts | 81° |